createdAt,value
2023-03-15T00:01:37.135Z,2.03
2023-03-15T00:04:05.856Z,2.17
2023-03-15T00:06:34.543Z,1.93
2023-03-15T00:09:03.083Z,2.30
2023-03-15T00:11:32.410Z,1.97
2023-03-15T00:14:01.875Z,1.80
2023-03-15T00:16:29.605Z,1.70
2023-03-15T00:18:57.613Z,2.10
2023-03-15T00:21:25.473Z,1.93
2023-03-15T00:23:53.264Z,1.73
2023-03-15T00:26:20.818Z,1.70
2023-03-15T00:28:49.813Z,1.70
2023-03-15T00:31:18.876Z,1.97
2023-03-15T00:33:47.151Z,2.07
2023-03-15T00:36:15.140Z,2.10
2023-03-15T00:38:44.066Z,1.83
2023-03-15T00:41:13.824Z,1.90
2023-03-15T00:43:41.580Z,2.13
2023-03-15T00:46:11.199Z,1.80
2023-03-15T00:48:39.526Z,1.90
2023-03-15T00:51:08.630Z,2.37
2023-03-15T00:53:37.226Z,2.70
2023-03-15T00:56:06.180Z,2.80
2023-03-15T00:58:33.795Z,2.00
2023-03-15T01:01:01.789Z,2.03
2023-03-15T01:03:30.792Z,2.83
2023-03-15T01:05:58.375Z,3.17
2023-03-15T01:08:26.046Z,2.97
2023-03-15T01:10:53.622Z,3.10
2023-03-15T01:13:21.213Z,2.90
2023-03-15T01:15:48.855Z,2.70
2023-03-15T01:18:16.450Z,2.83
2023-03-15T01:20:45.951Z,3.10
2023-03-15T01:23:13.530Z,3.13
2023-03-15T01:25:41.754Z,2.63
2023-03-15T01:28:09.370Z,2.60
2023-03-15T01:30:37.016Z,3.30
2023-03-15T01:33:04.774Z,3.30
2023-03-15T01:35:32.448Z,3.50
2023-03-15T01:38:01.382Z,3.07
2023-03-15T01:40:29.221Z,3.93
2023-03-15T01:43:15.665Z,2.50
2023-03-15T01:46:08.491Z,2.80
2023-03-15T01:48:38.642Z,3.20
2023-03-15T01:51:10.565Z,2.50
2023-03-15T01:53:40.782Z,2.93
2023-03-15T01:56:08.949Z,3.03
2023-03-15T01:58:37.665Z,3.07
2023-03-15T02:01:05.749Z,3.00
2023-03-15T02:03:36.538Z,2.73
2023-03-15T02:06:07.016Z,2.90
2023-03-15T02:08:40.979Z,3.10
2023-03-15T02:11:08.596Z,3.10
2023-03-15T02:13:36.654Z,3.27
2023-03-15T02:16:06.838Z,3.53
2023-03-15T02:18:36.617Z,3.37
2023-03-15T02:21:10.047Z,3.73
2023-03-15T02:23:39.006Z,3.77
2023-03-15T02:26:15.846Z,3.80
2023-03-15T02:28:45.016Z,3.80
2023-03-15T02:31:12.729Z,3.30
2023-03-15T02:33:43.764Z,3.53
2023-03-15T02:36:16.081Z,3.20
2023-03-15T02:38:43.694Z,3.80
2023-03-15T02:41:11.680Z,3.87
2023-03-15T02:43:40.548Z,3.67
2023-03-15T02:46:10.109Z,3.23
2023-03-15T02:48:38.972Z,3.80
2023-03-15T02:51:07.064Z,3.00
2023-03-15T02:53:35.002Z,3.30
2023-03-15T02:56:03.514Z,3.30
2023-03-15T02:58:32.354Z,2.93
2023-03-15T03:00:59.981Z,3.53
2023-03-15T03:03:29.021Z,3.57
2023-03-15T03:05:56.596Z,3.67
2023-03-15T03:08:24.198Z,3.40
2023-03-15T03:10:51.799Z,2.90
2023-03-15T03:13:19.413Z,2.97
2023-03-15T03:15:46.996Z,2.93
2023-03-15T03:18:14.800Z,3.03
2023-03-15T03:20:46.164Z,3.30
2023-03-15T03:23:13.824Z,3.63
2023-03-15T03:25:41.476Z,3.83
2023-03-15T03:28:09.095Z,3.50
2023-03-15T03:30:37.582Z,3.97
2023-03-15T03:33:05.779Z,3.90
2023-03-15T03:35:33.574Z,3.70
2023-03-15T03:38:02.527Z,4.23
2023-03-15T03:40:30.110Z,3.77
2023-03-15T03:42:57.722Z,4.47
2023-03-15T03:45:25.478Z,4.10
2023-03-15T03:47:53.116Z,4.00
2023-03-15T03:50:21.138Z,3.80
2023-03-15T03:52:48.735Z,3.90
2023-03-15T03:55:17.858Z,4.23
2023-03-15T03:57:45.479Z,3.97
2023-03-15T04:00:15.525Z,4.03
2023-03-15T04:02:43.774Z,4.37
2023-03-15T04:05:12.228Z,4.23
2023-03-15T04:07:39.831Z,4.20
2023-03-15T04:10:08.061Z,4.47
2023-03-15T04:12:37.031Z,4.50
2023-03-15T04:15:05.190Z,4.50
2023-03-15T04:17:32.760Z,4.17
2023-03-15T04:20:05.124Z,4.20
2023-03-15T04:22:34.806Z,4.20
2023-03-15T04:25:03.041Z,3.63
2023-03-15T04:27:30.656Z,4.03
2023-03-15T04:29:59.656Z,3.80
2023-03-15T04:32:27.242Z,4.13
2023-03-15T04:34:55.905Z,4.33
2023-03-15T04:37:23.525Z,4.33
2023-03-15T04:39:52.620Z,4.00
2023-03-15T04:42:20.279Z,4.00
2023-03-15T04:44:47.915Z,4.50
2023-03-15T04:47:16.929Z,4.50
2023-03-15T04:49:44.525Z,4.03
2023-03-15T04:52:12.391Z,4.37
2023-03-15T04:54:40.506Z,4.43
2023-03-15T04:57:08.356Z,4.47
2023-03-15T04:59:35.919Z,3.97
2023-03-15T05:02:04.121Z,4.63
2023-03-15T05:04:33.184Z,4.53
2023-03-15T05:07:00.824Z,4.73
2023-03-15T05:09:28.431Z,4.20
2023-03-15T05:11:56.022Z,4.57
2023-03-15T05:14:23.691Z,5.10
2023-03-15T05:16:55.912Z,5.43
2023-03-15T05:19:23.567Z,5.20
2023-03-15T05:21:54.634Z,5.70
2023-03-15T05:24:22.314Z,5.60
2023-03-15T05:26:49.995Z,6.30
2023-03-15T05:29:17.622Z,5.60
2023-03-15T05:31:45.285Z,5.53
2023-03-15T05:34:13.183Z,6.43
2023-03-15T05:36:41.855Z,6.17
2023-03-15T05:39:11.437Z,6.70
2023-03-15T05:41:39.040Z,6.13
2023-03-15T05:44:06.621Z,6.40
2023-03-15T05:46:34.305Z,6.83
2023-03-15T05:49:01.949Z,5.73
2023-03-15T05:51:29.797Z,5.53
2023-03-15T05:53:57.400Z,6.50
2023-03-15T05:56:26.464Z,5.50
2023-03-15T05:58:54.085Z,4.73
2023-03-15T06:01:21.780Z,5.43
2023-03-15T06:03:49.489Z,5.00
2023-03-15T06:06:17.229Z,5.00
2023-03-15T06:08:44.811Z,5.20
2023-03-15T06:11:12.497Z,5.73
2023-03-15T06:13:41.479Z,5.57
2023-03-15T06:16:09.106Z,4.73
2023-03-15T06:18:36.777Z,5.17
2023-03-15T06:21:04.399Z,5.17
2023-03-15T06:23:31.999Z,5.53
2023-03-15T06:25:59.651Z,5.97
2023-03-15T06:28:27.301Z,4.93
2023-03-15T06:30:56.257Z,5.20
2023-03-15T06:33:24.369Z,5.83
2023-03-15T06:35:52.025Z,5.97
2023-03-15T06:38:19.616Z,5.60
2023-03-15T06:40:47.205Z,7.37
2023-03-15T06:43:19.430Z,7.10
2023-03-15T06:45:47.400Z,6.03
2023-03-15T06:48:16.444Z,6.50
2023-03-15T06:50:47.358Z,7.53
2023-03-15T06:53:16.421Z,6.80
2023-03-15T06:55:44.094Z,6.53
2023-03-15T06:58:12.185Z,7.57
2023-03-15T07:00:39.777Z,7.03
2023-03-15T07:03:07.386Z,6.90
2023-03-15T07:05:37.238Z,6.00
2023-03-15T07:08:05.149Z,6.80
2023-03-15T07:10:32.746Z,6.20
2023-03-15T07:13:00.464Z,7.03
2023-03-15T07:15:28.477Z,6.63
2023-03-15T07:17:56.080Z,8.27
2023-03-15T07:20:23.810Z,6.80
2023-03-15T07:22:52.906Z,6.23
2023-03-15T07:25:24.018Z,6.20
2023-03-15T07:27:51.824Z,7.30
2023-03-15T07:30:19.849Z,6.40
2023-03-15T07:32:47.941Z,6.43
2023-03-15T07:35:16.937Z,7.30
2023-03-15T07:37:44.996Z,6.40
2023-03-15T07:40:16.211Z,6.67
2023-03-15T07:42:44.452Z,6.63
2023-03-15T07:45:12.760Z,7.33
2023-03-15T07:47:40.961Z,6.87
2023-03-15T07:50:09.697Z,7.10
2023-03-15T07:52:37.270Z,6.93
2023-03-15T07:55:08.429Z,8.00
2023-03-15T07:57:37.459Z,7.50
2023-03-15T08:00:06.848Z,7.47
2023-03-15T08:02:34.491Z,6.53
2023-03-15T08:05:02.137Z,8.07
2023-03-15T08:07:29.733Z,7.60
2023-03-15T08:09:57.994Z,6.70
2023-03-15T08:12:25.829Z,6.23
2023-03-15T08:14:54.811Z,8.27
2023-03-15T08:17:22.596Z,6.60
2023-03-15T08:19:50.278Z,6.93
2023-03-15T08:22:17.954Z,7.73
2023-03-15T08:24:45.970Z,7.87
2023-03-15T08:27:13.558Z,7.73
2023-03-15T08:29:41.496Z,6.53
2023-03-15T08:32:10.899Z,6.47
2023-03-15T08:34:38.838Z,6.87
2023-03-15T08:37:06.430Z,6.33
2023-03-15T08:39:36.328Z,6.90
2023-03-15T08:42:04.069Z,6.10
2023-03-15T08:44:31.827Z,7.23
2023-03-15T08:46:59.540Z,6.50
2023-03-15T08:49:28.730Z,7.30
2023-03-15T08:51:56.320Z,7.27
2023-03-15T08:54:25.615Z,7.27
2023-03-15T08:56:53.177Z,6.67
2023-03-15T08:59:31.507Z,8.03
2023-03-15T09:02:00.924Z,7.20
2023-03-15T09:04:30.145Z,6.87
2023-03-15T09:06:57.854Z,6.20
2023-03-15T09:09:25.743Z,6.20
2023-03-15T09:11:53.317Z,6.57
2023-03-15T09:14:21.277Z,7.07
2023-03-15T09:16:49.014Z,6.57
2023-03-15T09:19:17.759Z,6.20
2023-03-15T09:21:47.188Z,4.97
2023-03-15T09:24:15.145Z,4.77
2023-03-15T09:26:42.760Z,4.67
2023-03-15T09:29:10.405Z,5.13
2023-03-15T09:31:38.008Z,5.00
2023-03-15T09:34:05.964Z,4.13
2023-03-15T09:36:33.692Z,4.33
2023-03-15T09:39:02.889Z,3.80
2023-03-15T09:41:42.213Z,3.70
2023-03-15T09:44:15.714Z,3.43
2023-03-15T09:46:54.816Z,4.10
2023-03-15T09:49:35.482Z,3.53
2023-03-15T09:52:05.723Z,4.20
2023-03-15T09:54:41.163Z,3.70
2023-03-15T09:57:14.368Z,3.37
2023-03-15T09:59:44.393Z,2.93
2023-03-15T10:02:19.223Z,3.73
2023-03-15T10:04:47.550Z,3.03
2023-03-15T10:07:16.566Z,3.40
2023-03-15T10:09:46.612Z,3.70
2023-03-15T10:12:16.282Z,2.83
2023-03-15T10:14:57.657Z,3.00
2023-03-15T10:17:32.014Z,2.90
2023-03-15T10:20:01.994Z,2.60
2023-03-15T10:22:33.904Z,3.30
2023-03-15T10:25:06.097Z,3.57
2023-03-15T10:27:39.110Z,3.03
2023-03-15T10:30:16.645Z,2.73
2023-03-15T10:32:45.950Z,2.97
2023-03-15T10:35:15.926Z,2.90
2023-03-15T10:37:43.894Z,3.07
2023-03-15T10:40:16.230Z,2.93
2023-03-15T10:42:45.300Z,2.67
2023-03-15T10:45:24.274Z,2.60
2023-03-15T10:48:00.465Z,2.73
2023-03-15T10:50:30.315Z,3.83
2023-03-15T10:52:59.327Z,3.00
2023-03-15T10:55:33.241Z,3.60
2023-03-15T10:58:14.842Z,3.37
2023-03-15T11:00:50.666Z,3.53
2023-03-15T11:03:20.197Z,2.50
2023-03-15T11:05:49.396Z,2.90
2023-03-15T11:08:19.013Z,2.50
2023-03-15T11:10:56.711Z,2.63
2023-03-15T11:13:25.840Z,2.83
2023-03-15T11:16:04.144Z,2.20
2023-03-15T11:18:35.240Z,3.17
2023-03-15T11:21:06.174Z,2.40
2023-03-15T11:23:36.801Z,2.63
2023-03-15T11:26:06.262Z,3.13
2023-03-15T11:28:37.132Z,2.47
2023-03-15T11:31:05.353Z,3.10
2023-03-15T11:33:39.702Z,2.57
2023-03-15T11:36:12.416Z,2.60
2023-03-15T11:38:43.866Z,2.67
2023-03-15T11:41:22.181Z,2.20
2023-03-15T11:43:56.692Z,2.43
2023-03-15T11:46:28.844Z,2.90
2023-03-15T11:49:00.010Z,3.03
2023-03-15T11:51:27.740Z,2.90
2023-03-15T11:54:05.492Z,2.90
2023-03-15T11:56:49.533Z,2.60
2023-03-15T11:59:18.666Z,2.60
2023-03-15T12:01:48.422Z,3.53
2023-03-15T12:04:42.423Z,3.40
2023-03-15T12:07:34.558Z,2.40
2023-03-15T12:10:33.729Z,2.47
2023-03-15T12:13:09.149Z,2.40
2023-03-15T12:15:47.948Z,2.43
2023-03-15T12:18:21.343Z,2.97
2023-03-15T12:20:57.637Z,2.63
2023-03-15T12:23:38.325Z,3.33
2023-03-15T12:26:11.874Z,2.00
2023-03-15T12:28:44.936Z,3.30
2023-03-15T12:31:14.580Z,2.50
2023-03-15T12:33:47.877Z,2.13
2023-03-15T12:36:31.041Z,2.20
2023-03-15T12:39:04.422Z,2.10
2023-03-15T12:41:42.387Z,2.57
2023-03-15T12:44:25.233Z,2.80
2023-03-15T12:47:00.275Z,2.00
2023-03-15T12:49:36.806Z,2.13
2023-03-15T12:52:07.429Z,2.30
2023-03-15T12:54:41.405Z,2.43
2023-03-15T12:57:11.797Z,2.27
2023-03-15T12:59:44.266Z,2.30
2023-03-15T13:02:35.867Z,2.40
2023-03-15T13:05:19.034Z,2.47
2023-03-15T13:07:55.898Z,2.23
2023-03-15T13:10:39.741Z,2.40
2023-03-15T13:13:33.813Z,2.40
2023-03-15T13:16:15.342Z,2.60
2023-03-15T13:18:49.664Z,3.13
2023-03-15T13:21:21.256Z,2.27
2023-03-15T13:23:51.977Z,2.60
2023-03-15T13:26:35.419Z,3.23
2023-03-15T13:29:09.216Z,2.23
2023-03-15T13:31:38.591Z,2.70
2023-03-15T13:34:13.747Z,2.60
2023-03-15T13:36:45.931Z,2.60
2023-03-15T13:39:20.071Z,2.17
2023-03-15T13:41:47.819Z,2.40
2023-03-15T13:44:19.797Z,2.37
2023-03-15T13:46:49.882Z,2.40
2023-03-15T13:49:18.521Z,2.13
2023-03-15T13:51:47.300Z,2.53
2023-03-15T13:54:18.224Z,2.20
2023-03-15T13:56:56.713Z,2.27
2023-03-15T13:59:25.187Z,2.10
2023-03-15T14:01:55.064Z,2.33
2023-03-15T14:04:23.400Z,2.43
2023-03-15T14:06:51.184Z,2.30
2023-03-15T14:09:21.501Z,2.07
2023-03-15T14:12:02.453Z,1.73
2023-03-15T14:14:31.438Z,2.77
2023-03-15T14:17:05.953Z,2.00
2023-03-15T14:19:35.855Z,2.47
2023-03-15T14:22:05.716Z,2.60
2023-03-15T14:24:36.808Z,2.57
2023-03-15T14:27:07.870Z,1.73
2023-03-15T14:29:36.907Z,2.37
2023-03-15T14:32:08.885Z,2.13
2023-03-15T14:34:38.845Z,2.10
2023-03-15T14:37:10.604Z,2.47
2023-03-15T14:39:40.335Z,2.27
2023-03-15T14:42:08.505Z,2.70
2023-03-15T14:44:36.128Z,2.17
2023-03-15T14:47:07.308Z,2.27
2023-03-15T14:49:36.400Z,2.73
2023-03-15T14:52:05.661Z,2.30
2023-03-15T14:54:33.859Z,2.47
2023-03-15T14:57:01.462Z,2.60
2023-03-15T14:59:29.075Z,2.43
2023-03-15T15:01:59.177Z,2.70
2023-03-15T15:04:31.214Z,2.50
2023-03-15T15:07:03.043Z,2.37
2023-03-15T15:09:31.640Z,2.33
2023-03-15T15:11:59.248Z,2.70
2023-03-15T15:14:26.892Z,2.60
2023-03-15T15:16:54.606Z,2.43
2023-03-15T15:19:22.303Z,2.63
2023-03-15T15:21:49.885Z,2.30
2023-03-15T15:24:21.176Z,2.30
2023-03-15T15:26:48.917Z,3.23
2023-03-15T15:29:17.401Z,2.80
2023-03-15T15:31:46.029Z,2.70
2023-03-15T15:34:14.030Z,2.17
2023-03-15T15:36:43.698Z,2.50
2023-03-15T15:39:17.579Z,2.77
2023-03-15T15:41:46.789Z,2.60
2023-03-15T15:44:16.928Z,2.30
2023-03-15T15:46:44.628Z,2.37
2023-03-15T15:49:12.542Z,2.40
2023-03-15T15:51:42.858Z,2.50
2023-03-15T15:54:15.217Z,2.43
2023-03-15T15:56:48.896Z,2.27
2023-03-15T15:59:18.415Z,2.73
2023-03-15T16:01:59.453Z,2.73
2023-03-15T16:04:29.153Z,2.50
2023-03-15T16:06:58.632Z,2.40
2023-03-15T16:09:26.933Z,2.83
2023-03-15T16:11:56.251Z,2.17
2023-03-15T16:14:25.282Z,2.60
2023-03-15T16:16:52.882Z,2.50
2023-03-15T16:19:20.562Z,2.70
2023-03-15T16:21:50.058Z,2.60
2023-03-15T16:24:20.971Z,2.63
2023-03-15T16:26:49.562Z,2.27
2023-03-15T16:29:20.397Z,2.33
2023-03-15T16:31:48.839Z,2.20
2023-03-15T16:34:18.520Z,2.90
2023-03-15T16:36:49.780Z,2.50
2023-03-15T16:39:18.096Z,3.50
2023-03-15T16:41:45.916Z,2.60
2023-03-15T16:44:14.458Z,2.50
2023-03-15T16:46:43.722Z,2.97
2023-03-15T16:49:13.211Z,2.90
2023-03-15T16:51:43.740Z,2.70
2023-03-15T16:57:01.377Z,2.60
2023-03-15T16:59:29.532Z,2.83
2023-03-15T17:01:59.066Z,2.60
2023-03-15T17:04:26.683Z,2.70
2023-03-15T17:06:54.330Z,2.20
2023-03-15T17:09:23.260Z,2.97
2023-03-15T17:11:52.963Z,3.20
2023-03-15T17:14:23.562Z,2.87
2023-03-15T17:16:51.346Z,2.67
2023-03-15T17:19:20.362Z,2.53
2023-03-15T17:21:48.367Z,2.53
2023-03-15T17:24:16.273Z,2.80
2023-03-15T17:26:43.851Z,2.67
2023-03-15T17:29:17.781Z,2.90
2023-03-15T17:31:45.554Z,2.43
2023-03-15T17:34:13.188Z,3.03
2023-03-15T17:36:42.291Z,2.70
2023-03-15T17:39:15.668Z,3.10
2023-03-15T17:41:46.980Z,3.30
2023-03-15T17:44:14.703Z,2.67
2023-03-15T17:46:43.035Z,3.10
2023-03-15T17:49:13.008Z,3.00
2023-03-15T17:51:42.169Z,3.60
2023-03-15T17:54:13.833Z,3.57
2023-03-15T17:56:42.046Z,4.13
2023-03-15T17:59:12.063Z,4.07
2023-03-15T18:01:40.933Z,3.67
2023-03-15T18:04:11.334Z,3.77
2023-03-15T18:06:39.041Z,3.87
2023-03-15T18:09:07.997Z,5.87
2023-03-15T18:11:36.817Z,4.80
2023-03-15T18:14:05.159Z,4.40
2023-03-15T18:16:33.183Z,5.67
2023-03-15T18:19:00.837Z,6.80
2023-03-15T18:21:28.633Z,6.27
2023-03-15T18:23:56.631Z,5.60
2023-03-15T18:26:25.568Z,5.03
2023-03-15T18:28:53.224Z,4.13
2023-03-15T18:31:22.584Z,3.60
2023-03-15T18:33:51.209Z,3.83
2023-03-15T18:36:19.645Z,4.10
2023-03-15T18:38:47.559Z,4.27
2023-03-15T18:41:20.477Z,4.40
2023-03-15T18:43:51.381Z,4.47
2023-03-15T18:46:19.743Z,5.53
2023-03-15T18:48:47.685Z,5.27
2023-03-15T18:51:16.063Z,3.37
2023-03-15T18:53:45.369Z,4.00
2023-03-15T18:56:17.269Z,3.10
2023-03-15T18:58:44.883Z,3.30
2023-03-15T19:01:13.893Z,3.03
2023-03-15T19:03:41.565Z,3.40
2023-03-15T19:06:11.483Z,3.30
2023-03-15T19:08:39.506Z,3.73
2023-03-15T19:11:10.506Z,4.27
2023-03-15T19:13:38.281Z,4.57
2023-03-15T19:16:06.868Z,5.70
2023-03-15T19:18:35.947Z,4.93
2023-03-15T19:21:03.561Z,4.20
2023-03-15T19:23:31.993Z,4.33
2023-03-15T19:25:59.588Z,5.20
2023-03-15T19:28:27.238Z,4.37
2023-03-15T19:30:54.920Z,3.93
2023-03-15T19:33:22.591Z,4.23
2023-03-15T19:35:51.749Z,4.40
2023-03-15T19:38:20.002Z,4.43
2023-03-15T19:40:47.590Z,4.30
2023-03-15T19:43:15.954Z,4.03
2023-03-15T19:45:43.880Z,4.17
2023-03-15T19:48:11.442Z,3.30
2023-03-15T19:50:39.323Z,3.60
2023-03-15T19:53:08.439Z,3.90
2023-03-15T19:55:36.489Z,3.67
2023-03-15T19:58:04.315Z,3.90
2023-03-15T20:00:31.922Z,3.93
2023-03-15T20:02:59.904Z,4.10
2023-03-15T20:05:27.617Z,4.47
2023-03-15T20:07:55.293Z,4.00
2023-03-15T20:10:24.591Z,4.37
2023-03-15T20:12:52.310Z,4.87
2023-03-15T20:15:21.045Z,4.60
2023-03-15T20:17:48.739Z,5.30
2023-03-15T20:20:16.363Z,4.97
2023-03-15T20:22:45.547Z,5.60
2023-03-15T20:25:13.914Z,5.63
2023-03-15T20:27:43.098Z,6.00
2023-03-15T20:30:12.486Z,5.37
2023-03-15T20:32:40.207Z,6.47
2023-03-15T20:35:09.385Z,5.83
2023-03-15T20:37:40.543Z,7.50
2023-03-15T20:40:10.757Z,8.30
2023-03-15T20:42:38.588Z,10.03
2023-03-15T20:45:09.668Z,10.50
2023-03-15T20:47:41.357Z,10.63
2023-03-15T20:50:11.527Z,11.97
2023-03-15T20:52:39.417Z,10.27
2023-03-15T20:55:08.077Z,10.57
2023-03-15T20:57:36.417Z,10.43
2023-03-15T21:00:12.230Z,10.37
2023-03-15T21:02:41.333Z,10.70
2023-03-15T21:05:10.079Z,9.57
2023-03-15T21:07:38.318Z,9.27
2023-03-15T21:10:07.018Z,9.50
2023-03-15T21:12:34.655Z,8.97
2023-03-15T21:15:02.933Z,11.50
2023-03-15T21:17:30.545Z,11.57
2023-03-15T21:19:59.598Z,10.43
2023-03-15T21:22:27.200Z,13.93
2023-03-15T21:24:56.311Z,11.73
2023-03-15T21:27:26.122Z,10.33
2023-03-15T21:29:54.511Z,9.60
2023-03-15T21:32:22.200Z,9.20
2023-03-15T21:34:49.795Z,8.07
2023-03-15T21:37:18.851Z,8.20
2023-03-15T21:39:46.555Z,8.20
2023-03-15T21:42:14.170Z,9.97
2023-03-15T21:44:41.863Z,9.77
2023-03-15T21:47:09.658Z,10.77
2023-03-15T21:49:37.897Z,12.73
2023-03-15T21:52:05.542Z,13.10
2023-03-15T21:54:34.701Z,12.50
2023-03-15T21:57:02.281Z,13.43
2023-03-15T21:59:29.933Z,13.73
2023-03-15T22:01:58.088Z,15.27
2023-03-15T22:04:25.797Z,17.47
2023-03-15T22:06:53.465Z,15.80
2023-03-15T22:09:23.179Z,15.03
2023-03-15T22:11:52.164Z,15.23
2023-03-15T22:14:19.836Z,14.80
2023-03-15T22:16:47.429Z,14.20
2023-03-15T22:19:15.002Z,13.27
2023-03-15T22:21:42.602Z,16.73
2023-03-15T22:24:10.269Z,14.07
2023-03-15T22:26:38.106Z,12.73
2023-03-15T22:29:07.429Z,13.17
2023-03-15T22:31:37.641Z,11.30
2023-03-15T22:34:05.266Z,11.50
2023-03-15T22:36:33.804Z,11.30
2023-03-15T22:39:01.633Z,12.20
2023-03-15T22:41:29.214Z,11.40
2023-03-15T22:43:57.690Z,11.53
2023-03-15T22:46:27.012Z,12.07
2023-03-15T22:48:54.954Z,12.83
2023-03-15T22:51:22.796Z,14.93
2023-03-15T22:53:50.448Z,15.40
2023-03-15T22:56:18.188Z,12.93
2023-03-15T22:58:47.235Z,11.80
2023-03-15T23:01:14.864Z,10.67
2023-03-15T23:03:43.829Z,11.77
2023-03-15T23:06:11.837Z,11.67
2023-03-15T23:08:39.479Z,12.10
2023-03-15T23:11:07.103Z,11.63
2023-03-15T23:13:34.879Z,10.63
2023-03-15T23:16:04.280Z,10.07
2023-03-15T23:18:34.176Z,10.37
2023-03-15T23:21:07.695Z,9.67
2023-03-15T23:23:35.378Z,9.87
2023-03-15T23:26:03.869Z,10.80
2023-03-15T23:28:31.949Z,10.87
2023-03-15T23:31:01.386Z,10.00
2023-03-15T23:33:29.948Z,12.07
2023-03-15T23:35:57.846Z,10.90
2023-03-15T23:38:27.129Z,11.43
2023-03-15T23:40:55.179Z,11.87
2023-03-15T23:43:22.845Z,13.33
2023-03-15T23:45:55.659Z,11.80
2023-03-15T23:48:23.630Z,13.43
2023-03-15T23:50:54.647Z,11.83
2023-03-15T23:53:22.717Z,15.73
2023-03-15T23:55:52.145Z,12.83
2023-03-15T23:58:20.737Z,14.47
